Time;durP1;ratioP1;P1;durP2;ratioP2;P2;SDS_P1;SDS_P2;PMS_P1;PMS_P2;Temp;Humidity;BMP_temperature;BMP_pressure;BME280_temperature;BME280_humidity;BME280_pressure;Samples;Min_cycle;Max_cycle;Signal;HPM_P1;HPM_P2
2022/11/29 00:00:25;;;;;;;9.88;6.47;;;;;;;;;;5090871;28;20047;-78
2022/11/29 00:02:54;;;;;;;12.13;6.32;;;;;;;;;;5091231;28;20024;-78
2022/11/29 00:05:20;;;;;;;9.68;6.82;;;;;;;;;;5077980;28;20024;-78
2022/11/29 00:07:46;;;;;;;9.60;6.70;;;;;;;;;;5090505;28;20024;-80
2022/11/29 00:10:13;;;;;;;9.88;6.50;;;;;;;;;;5091096;28;20055;-78
2022/11/29 00:12:39;;;;;;;8.73;5.90;;;;;;;;;;5090861;28;20024;-78
2022/11/29 00:15:05;;;;;;;10.75;6.63;;;;;;;;;;5090344;28;20104;-77
2022/11/29 00:17:31;;;;;;;12.90;6.78;;;;;;;;;;5090391;28;20106;-77
2022/11/29 00:19:57;;;;;;;9.23;6.47;;;;;;;;;;5091214;28;20020;-78
2022/11/29 00:22:24;;;;;;;12.35;7.15;;;;;;;;;;5091338;28;20023;-76
2022/11/29 00:24:50;;;;;;;13.95;6.68;;;;;;;;;;5085168;28;20021;-77
2022/11/29 00:27:16;;;;;;;11.25;7.18;;;;;;;;;;5072399;28;20382;-77
2022/11/29 00:29:43;;;;;;;10.70;6.28;;;;;;;;;;5091241;28;20099;-77
2022/11/29 00:32:09;;;;;;;8.82;6.13;;;;;;;;;;5090431;28;20020;-77
2022/11/29 00:34:36;;;;;;;9.77;6.47;;;;;;;;;;5090067;28;20101;-78
2022/11/29 00:37:02;;;;;;;10.88;6.25;;;;;;;;;;5090408;28;20020;-78
2022/11/29 00:39:28;;;;;;;9.40;5.70;;;;;;;;;;5091172;28;20024;-77
2022/11/29 00:41:54;;;;;;;8.68;5.60;;;;;;;;;;5090393;28;20503;-78
2022/11/29 00:44:20;;;;;;;11.13;5.85;;;;;;;;;;5091166;28;20035;-77
2022/11/29 00:46:46;;;;;;;7.07;5.30;;;;;;;;;;5090692;28;20423;-78
2022/11/29 00:49:12;;;;;;;9.25;5.72;;;;;;;;;;5094529;28;20027;-77
2022/11/29 00:51:38;;;;;;;9.43;5.75;;;;;;;;;;5094784;28;20152;-77
2022/11/29 00:54:04;;;;;;;6.93;4.97;;;;;;;;;;5094186;28;20510;-77
2022/11/29 00:56:30;;;;;;;8.13;4.75;;;;;;;;;;5093249;28;20028;-77
2022/11/29 00:58:56;;;;;;;5.93;4.30;;;;;;;;;;5093921;28;20028;-77
2022/11/29 01:01:23;;;;;;;6.57;4.35;;;;;;;;;;5093613;28;20147;-78
2022/11/29 01:03:49;;;;;;;9.35;4.68;;;;;;;;;;5093753;28;20062;-78
2022/11/29 01:06:16;;;;;;;6.78;4.45;;;;;;;;;;5087086;28;20032;-78
2022/11/29 01:08:44;;;;;;;5.80;3.95;;;;;;;;;;5087612;28;20380;-79
2022/11/29 01:11:18;;;;;;;6.03;4.63;;;;;;;;;;5093801;28;20028;-79
2022/11/29 01:13:44;;;;;;;7.15;4.50;;;;;;;;;;5075859;28;20035;-78
2022/11/29 01:16:10;;;;;;;6.70;4.60;;;;;;;;;;5093049;28;20039;-78
2022/11/29 01:18:37;;;;;;;7.18;4.43;;;;;;;;;;5094211;28;20035;-78
2022/11/29 01:21:07;;;;;;;4.32;3.92;;;;;;;;;;5093553;28;20024;-78
2022/11/29 01:23:33;;;;;;;6.75;4.10;;;;;;;;;;5094034;28;20024;-79
2022/11/29 01:26:04;;;;;;;4.95;3.55;;;;;;;;;;5093504;28;20039;-79
2022/11/29 01:28:30;;;;;;;5.57;3.17;;;;;;;;;;5093375;28;20060;-78
2022/11/29 01:30:56;;;;;;;5.60;3.88;;;;;;;;;;5094041;28;20319;-76
2022/11/29 01:33:23;;;;;;;5.28;3.83;;;;;;;;;;5093977;28;20038;-77
2022/11/29 01:35:50;;;;;;;4.00;3.53;;;;;;;;;;5094216;28;20035;-77
2022/11/29 01:38:16;;;;;;;7.07;3.78;;;;;;;;;;5093147;28;20101;-77
2022/11/29 01:40:43;;;;;;;5.18;3.35;;;;;;;;;;5091651;28;20408;-78
2022/11/29 01:43:13;;;;;;;5.82;4.07;;;;;;;;;;5093139;28;20028;-79
2022/11/29 01:45:39;;;;;;;5.90;4.00;;;;;;;;;;5093492;28;20044;-78
2022/11/29 01:48:05;;;;;;;5.95;4.38;;;;;;;;;;5092433;28;20442;-78
2022/11/29 01:50:32;;;;;;;8.88;4.70;;;;;;;;;;5092293;28;20476;-78
2022/11/29 01:52:58;;;;;;;6.03;4.43;;;;;;;;;;5093008;28;20146;-78
2022/11/29 01:55:24;;;;;;;5.35;3.97;;;;;;;;;;5092999;28;20126;-77
2022/11/29 01:57:51;;;;;;;4.40;3.75;;;;;;;;;;5091930;28;20024;-78
2022/11/29 02:00:18;;;;;;;4.85;3.90;;;;;;;;;;5093684;28;20120;-78
2022/11/29 02:02:53;;;;;;;5.57;3.95;;;;;;;;;;5093172;28;20461;-78
2022/11/29 02:05:20;;;;;;;4.68;3.45;;;;;;;;;;5076018;28;20028;-77
2022/11/29 02:07:47;;;;;;;3.60;3.20;;;;;;;;;;5091947;28;20073;-77
2022/11/29 02:10:14;;;;;;;4.60;3.30;;;;;;;;;;5092503;28;20024;-78
2022/11/29 02:13:10;;;;;;;3.55;3.13;;;;;;;;;;5073462;28;20024;-76
2022/11/29 02:15:45;;;;;;;4.53;3.30;;;;;;;;;;5068348;28;20485;-77
2022/11/29 02:18:14;;;;;;;3.42;3.13;;;;;;;;;;5092749;28;20031;-79
2022/11/29 02:21:03;;;;;;;3.85;3.08;;;;;;;;;;5093001;28;20016;-76
2022/11/29 02:23:29;;;;;;;2.80;2.38;;;;;;;;;;5076805;28;20029;-76
2022/11/29 02:26:08;;;;;;;3.28;2.50;;;;;;;;;;5065921;28;20055;-76
2022/11/29 02:28:53;;;;;;;3.13;2.83;;;;;;;;;;5085537;28;20103;-78
2022/11/29 02:31:43;;;;;;;2.75;2.40;;;;;;;;;;5095220;28;20031;-77
2022/11/29 02:34:15;;;;;;;3.63;2.65;;;;;;;;;;5093655;28;20428;-77
2022/11/29 02:37:04;;;;;;;4.20;3.00;;;;;;;;;;5091716;28;20032;-78
2022/11/29 02:39:30;;;;;;;3.05;2.72;;;;;;;;;;5063631;28;20032;-78
2022/11/29 02:42:15;;;;;;;3.17;2.65;;;;;;;;;;5092949;28;20016;-77
2022/11/29 02:44:44;;;;;;;4.15;3.15;;;;;;;;;;5094932;28;20472;-77
2022/11/29 02:47:10;;;;;;;3.80;3.10;;;;;;;;;;5079387;28;20016;-78
2022/11/29 02:49:36;;;;;;;4.30;3.08;;;;;;;;;;5092055;28;20100;-78
2022/11/29 02:52:06;;;;;;;3.25;2.88;;;;;;;;;;5073660;28;20016;-78
2022/11/29 02:54:45;;;;;;;4.82;3.35;;;;;;;;;;5091962;28;20024;-78
2022/11/29 02:57:20;;;;;;;5.50;4.00;;;;;;;;;;5082588;28;20024;-79
2022/11/29 03:00:10;;;;;;;4.18;3.58;;;;;;;;;;5092422;28;20065;-77
2022/11/29 03:02:48;;;;;;;5.93;3.92;;;;;;;;;;5092682;28;20078;-77
2022/11/29 03:05:17;;;;;;;4.38;3.92;;;;;;;;;;5092231;28;20084;-77
2022/11/29 03:07:55;;;;;;;4.75;3.55;;;;;;;;;;5072673;28;20104;-77
2022/11/29 03:10:26;;;;;;;3.65;2.67;;;;;;;;;;5090856;28;20119;-77
2022/11/29 03:12:53;;;;;;;4.18;3.10;;;;;;;;;;5091559;28;20114;-76
2022/11/29 03:15:19;;;;;;;3.60;3.22;;;;;;;;;;5091519;28;20028;-77
2022/11/29 03:17:48;;;;;;;4.00;3.30;;;;;;;;;;5091182;28;20062;-78
2022/11/29 03:20:33;;;;;;;4.50;3.58;;;;;;;;;;5092019;28;20024;-78
2022/11/29 03:22:59;;;;;;;3.83;3.25;;;;;;;;;;5092288;28;20211;-77
2022/11/29 03:25:28;;;;;;;3.95;3.20;;;;;;;;;;5092742;28;20024;-77
2022/11/29 03:27:58;;;;;;;3.58;2.78;;;;;;;;;;5091011;28;20024;-78
2022/11/29 03:30:24;;;;;;;4.28;2.80;;;;;;;;;;5090846;28;20021;-78
2022/11/29 03:32:56;;;;;;;5.28;3.17;;;;;;;;;;5092388;28;20023;-77
2022/11/29 03:35:23;;;;;;;3.72;3.38;;;;;;;;;;5091971;28;20099;-78
2022/11/29 03:38:03;;;;;;;3.58;3.20;;;;;;;;;;5090758;28;20016;-77
2022/11/29 03:40:32;;;;;;;5.30;3.28;;;;;;;;;;5090695;28;20028;-78
2022/11/29 03:43:10;;;;;;;4.50;3.55;;;;;;;;;;5092083;28;20032;-77
2022/11/29 03:45:43;;;;;;;3.33;2.80;;;;;;;;;;5094458;28;20799;-78
2022/11/29 03:48:09;;;;;;;4.00;3.55;;;;;;;;;;5088991;28;20032;-78
2022/11/29 03:50:43;;;;;;;7.35;4.43;;;;;;;;;;5085955;28;20035;-77
2022/11/29 03:53:09;;;;;;;5.43;4.43;;;;;;;;;;5073778;28;20055;-77
2022/11/29 03:55:50;;;;;;;4.55;3.80;;;;;;;;;;5092327;28;20024;-77
2022/11/29 03:58:22;;;;;;;5.82;4.07;;;;;;;;;;5089919;28;20028;-78
2022/11/29 04:00:48;;;;;;;4.05;3.75;;;;;;;;;;5086659;28;20028;-79
2022/11/29 04:03:14;;;;;;;5.50;3.67;;;;;;;;;;5092200;28;20523;-77
2022/11/29 04:05:50;;;;;;;4.45;3.58;;;;;;;;;;5092194;28;20032;-77
2022/11/29 04:08:34;;;;;;;5.85;4.43;;;;;;;;;;5090990;28;20025;-79
2022/11/29 04:11:16;;;;;;;4.13;3.67;;;;;;;;;;5069563;28;20038;-78
2022/11/29 04:13:42;;;;;;;4.65;3.58;;;;;;;;;;5076742;28;20020;-78
2022/11/29 04:16:08;;;;;;;4.00;3.25;;;;;;;;;;5090993;28;20035;-78
2022/11/29 04:18:57;;;;;;;6.22;4.22;;;;;;;;;;5077197;28;20021;-77
2022/11/29 04:21:38;;;;;;;4.07;3.50;;;;;;;;;;5093304;28;20165;-78
2022/11/29 04:24:30;;;;;;;4.32;3.28;;;;;;;;;;5095376;28;20378;-77
2022/11/29 04:27:15;;;;;;;5.30;3.60;;;;;;;;;;5094865;28;20039;-78
2022/11/29 04:29:50;;;;;;;4.57;3.80;;;;;;;;;;5075005;28;20056;-79
2022/11/29 04:32:19;;;;;;;4.82;3.65;;;;;;;;;;5085128;28;20039;-77
2022/11/29 04:35:04;;;;;;;4.72;3.53;;;;;;;;;;5094897;28;20020;-79
2022/11/29 04:37:39;;;;;;;4.95;3.78;;;;;;;;;;5074578;28;20085;-77
2022/11/29 04:40:17;;;;;;;4.70;4.05;;;;;;;;;;5092247;28;20067;-78
2022/11/29 04:42:49;;;;;;;5.07;3.95;;;;;;;;;;5094927;28;20019;-77
2022/11/29 04:45:34;;;;;;;6.65;4.20;;;;;;;;;;5094631;28;20074;-78
2022/11/29 04:48:03;;;;;;;4.13;3.22;;;;;;;;;;5093710;28;20357;-78
2022/11/29 04:50:38;;;;;;;4.75;3.58;;;;;;;;;;5092241;28;20036;-80
2022/11/29 04:53:11;;;;;;;4.18;3.50;;;;;;;;;;5091434;28;20024;-79
2022/11/29 04:55:37;;;;;;;5.50;3.88;;;;;;;;;;5094337;28;20031;-77
2022/11/29 04:58:09;;;;;;;5.35;3.03;;;;;;;;;;5093545;28;20028;-77
2022/11/29 05:00:42;;;;;;;3.78;2.88;;;;;;;;;;5093461;28;20024;-77
2022/11/29 05:03:16;;;;;;;4.90;3.05;;;;;;;;;;5075819;28;20024;-78
2022/11/29 05:05:56;;;;;;;3.85;3.05;;;;;;;;;;5094205;28;20056;-78
2022/11/29 05:09:01;;;;;;;3.38;2.80;;;;;;;;;;5090765;28;20537;-80
2022/11/29 05:11:33;;;;;;;3.50;2.70;;;;;;;;;;5011743;28;20022;-78
2022/11/29 05:14:11;;;;;;;3.50;2.92;;;;;;;;;;5011475;28;20030;-77
2022/11/29 05:16:45;;;;;;;4.15;3.03;;;;;;;;;;5065842;28;20561;-77
2022/11/29 05:19:11;;;;;;;2.80;2.55;;;;;;;;;;5092912;28;20051;-77
2022/11/29 05:21:40;;;;;;;3.60;2.95;;;;;;;;;;5094241;28;20574;-77
2022/11/29 05:24:06;;;;;;;3.53;3.22;;;;;;;;;;5094114;28;20523;-78
2022/11/29 05:26:37;;;;;;;4.63;3.33;;;;;;;;;;5093905;28;20028;-76
2022/11/29 05:29:26;;;;;;;5.25;3.38;;;;;;;;;;5094083;28;20019;-78
2022/11/29 05:31:59;;;;;;;4.30;3.20;;;;;;;;;;5055476;28;20146;-77
2022/11/29 05:34:24;;;;;;;;;;;;;;;;;;5092136;28;20043;-79
2022/11/29 05:36:53;;;;;;;3.03;2.67;;;;;;;;;;5090728;28;19912;-78
2022/11/29 05:39:42;;;;;;;3.22;2.78;;;;;;;;;;5088205;28;20067;-77
2022/11/29 05:42:11;;;;;;;5.32;3.13;;;;;;;;;;5088152;28;20035;-77
2022/11/29 05:44:40;;;;;;;3.92;2.65;;;;;;;;;;5092869;28;20035;-79
2022/11/29 05:47:09;;;;;;;3.28;2.78;;;;;;;;;;5093027;28;20046;-81
2022/11/29 05:49:39;;;;;;;4.22;2.90;;;;;;;;;;5093135;28;20030;-79
2022/11/29 05:52:20;;;;;;;3.10;2.40;;;;;;;;;;5093608;28;20077;-78
2022/11/29 05:55:04;;;;;;;4.13;3.15;;;;;;;;;;5093261;28;20426;-76
2022/11/29 05:57:33;;;;;;;3.35;2.70;;;;;;;;;;5082995;28;20024;-77
2022/11/29 06:00:00;;;;;;;3.67;2.72;;;;;;;;;;5092863;28;20081;-78
2022/11/29 06:02:26;;;;;;;4.93;3.20;;;;;;;;;;5093646;28;20423;-78
2022/11/29 06:04:59;;;;;;;2.85;2.55;;;;;;;;;;5074173;28;20104;-78
2022/11/29 06:07:31;;;;;;;3.90;2.63;;;;;;;;;;5073516;28;20431;-77
2022/11/29 06:10:04;;;;;;;4.07;2.70;;;;;;;;;;5086690;28;20381;-77
2022/11/29 06:12:34;;;;;;;3.17;2.97;;;;;;;;;;5093647;28;20012;-78
2022/11/29 06:15:20;;;;;;;4.00;3.10;;;;;;;;;;5085301;28;20437;-77
2022/11/29 06:17:54;;;;;;;3.53;3.22;;;;;;;;;;5072435;28;20500;-77
2022/11/29 06:20:38;;;;;;;6.82;3.35;;;;;;;;;;5092935;28;20337;-78
2022/11/29 06:23:23;;;;;;;3.28;2.92;;;;;;;;;;5093374;28;20075;-78
2022/11/29 06:26:02;;;;;;;3.25;2.90;;;;;;;;;;5093340;28;20116;-77
2022/11/29 06:28:37;;;;;;;4.00;3.33;;;;;;;;;;5093337;28;20481;-78
2022/11/29 06:31:09;;;;;;;4.90;3.25;;;;;;;;;;5058888;28;20032;-78
2022/11/29 06:33:40;;;;;;;5.07;3.03;;;;;;;;;;5092422;28;20081;-77
2022/11/29 06:36:13;;;;;;;3.80;2.78;;;;;;;;;;5090643;28;20081;-79
2022/11/29 06:38:40;;;;;;;3.72;2.75;;;;;;;;;;5076197;28;20024;-78
2022/11/29 06:41:06;;;;;;;4.15;2.78;;;;;;;;;;5087219;28;20103;-78
2022/11/29 06:43:32;;;;;;;3.05;2.30;;;;;;;;;;5092758;28;20074;-78
2022/11/29 06:46:04;;;;;;;4.60;2.30;;;;;;;;;;5073669;28;20089;-79
2022/11/29 06:48:37;;;;;;;2.60;2.35;;;;;;;;;;5072637;28;20066;-78
2022/11/29 06:51:08;;;;;;;6.68;3.30;;;;;;;;;;5072328;28;20535;-78
2022/11/29 06:54:00;;;;;;;2.47;2.28;;;;;;;;;;5087405;28;20032;-77
2022/11/29 06:56:34;;;;;;;2.55;2.13;;;;;;;;;;5088977;28;20099;-77
2022/11/29 06:59:32;;;;;;;2.20;1.90;;;;;;;;;;5095229;28;20039;-77
2022/11/29 07:02:04;;;;;;;3.22;2.10;;;;;;;;;;5050945;28;20040;-78
2022/11/29 07:04:38;;;;;;;4.10;1.95;;;;;;;;;;5092975;28;20514;-77
2022/11/29 07:07:04;;;;;;;2.00;1.90;;;;;;;;;;5091836;28;20020;-77
2022/11/29 07:09:33;;;;;;;2.38;1.50;;;;;;;;;;5094315;28;20031;-77
2022/11/29 07:11:59;;;;;;;3.30;2.00;;;;;;;;;;5093540;28;20365;-77
2022/11/29 07:14:25;;;;;;;2.17;2.03;;;;;;;;;;5094252;28;20031;-77
2022/11/29 07:17:10;;;;;;;3.03;1.92;;;;;;;;;;5089110;28;20020;-79
2022/11/29 07:19:54;;;;;;;4.03;2.30;;;;;;;;;;5071874;28;20070;-78
2022/11/29 07:22:37;;;;;;;2.83;2.10;;;;;;;;;;5077229;28;20093;-78
2022/11/29 07:25:18;;;;;;;5.68;2.30;;;;;;;;;;5086024;28;20039;-79
2022/11/29 07:27:51;;;;;;;3.92;2.50;;;;;;;;;;5085445;28;20029;-78
2022/11/29 07:30:17;;;;;;;;;;;;;;;;;;5092437;28;20020;-78
2022/11/29 07:32:57;;;;;;;4.07;2.50;;;;;;;;;;5087377;28;19922;-79
2022/11/29 07:35:42;;;;;;;4.63;2.35;;;;;;;;;;5091861;28;20344;-79
2022/11/29 07:38:19;;;;;;;4.03;2.53;;;;;;;;;;5095962;28;20020;-79
2022/11/29 07:40:55;;;;;;;5.63;2.97;;;;;;;;;;5091538;28;20035;-76
2022/11/29 07:43:30;;;;;;;5.45;2.60;;;;;;;;;;5089784;28;20020;-78
2022/11/29 07:45:56;;;;;;;4.93;2.67;;;;;;;;;;5092135;28;20503;-78
2022/11/29 07:48:22;;;;;;;9.45;3.08;;;;;;;;;;5092158;28;20376;-78
2022/11/29 07:50:48;;;;;;;5.28;2.70;;;;;;;;;;5087708;28;20028;-79
2022/11/29 07:53:18;;;;;;;5.90;2.97;;;;;;;;;;5072725;28;20037;-79
2022/11/29 07:55:44;;;;;;;4.60;2.30;;;;;;;;;;5074525;28;20116;-78
2022/11/29 07:58:14;;;;;;;3.22;2.55;;;;;;;;;;5085561;28;20017;-78
2022/11/29 08:00:41;;;;;;;4.07;2.80;;;;;;;;;;5084062;28;20024;-78
2022/11/29 08:03:07;;;;;;;3.85;2.55;;;;;;;;;;5101330;28;20027;-77
2022/11/29 08:05:33;;;;;;;3.58;2.22;;;;;;;;;;5089230;28;20934;-80
2022/11/29 08:08:00;;;;;;;3.45;2.20;;;;;;;;;;5105786;28;20032;-79
2022/11/29 08:10:26;;;;;;;7.07;2.72;;;;;;;;;;5101420;28;20050;-81
2022/11/29 08:12:52;;;;;;;5.18;2.30;;;;;;;;;;5101773;28;20082;-80
2022/11/29 08:15:19;;;;;;;4.60;2.88;;;;;;;;;;5064597;28;20037;-81
2022/11/29 08:17:45;;;;;;;5.07;3.03;;;;;;;;;;5095519;28;20034;-81
2022/11/29 08:20:12;;;;;;;6.38;2.97;;;;;;;;;;5082927;28;20020;-80
2022/11/29 08:22:38;;;;;;;3.00;2.45;;;;;;;;;;5062160;28;20027;-80
2022/11/29 08:25:06;;;;;;;3.17;2.45;;;;;;;;;;5075040;28;20031;-81
2022/11/29 08:27:32;;;;;;;5.00;3.22;;;;;;;;;;5127404;28;20020;-81
2022/11/29 08:29:58;;;;;;;4.65;2.25;;;;;;;;;;5120358;28;20066;-81
2022/11/29 08:32:24;;;;;;;3.38;2.30;;;;;;;;;;5106054;28;20028;-80
2022/11/29 08:34:50;;;;;;;3.00;2.47;;;;;;;;;;5085484;28;20309;-81
2022/11/29 08:37:16;;;;;;;3.95;2.78;;;;;;;;;;5101824;28;20024;-81
2022/11/29 08:39:43;;;;;;;4.20;2.47;;;;;;;;;;5100164;28;20028;-81
2022/11/29 08:42:09;;;;;;;4.32;2.90;;;;;;;;;;5101762;28;20055;-81
2022/11/29 08:44:35;;;;;;;5.75;3.08;;;;;;;;;;5091951;28;20020;-81
2022/11/29 08:50:01;;;;;;;3.58;2.60;;;;;;;;;;5097315;28;20032;-81
2022/11/29 08:55:16;;;;;;;3.40;2.72;;;;;;;;;;5089187;28;20035;-77
2022/11/29 08:57:42;;;;;;;4.07;2.45;;;;;;;;;;5084913;28;20008;-78
2022/11/29 09:00:08;;;;;;;3.85;2.60;;;;;;;;;;5075403;28;20103;-78
2022/11/29 09:02:35;;;;;;;4.32;2.80;;;;;;;;;;5084652;28;20024;-77
2022/11/29 09:05:02;;;;;;;5.53;3.10;;;;;;;;;;5095795;28;20074;-78
2022/11/29 09:07:28;;;;;;;5.72;3.20;;;;;;;;;;5091556;28;20024;-78
2022/11/29 09:09:54;;;;;;;4.03;2.30;;;;;;;;;;5097969;28;20020;-78
2022/11/29 09:12:20;;;;;;;3.80;2.83;;;;;;;;;;5096518;28;20024;-78
2022/11/29 09:14:46;;;;;;;3.22;2.50;;;;;;;;;;5097714;28;20023;-78
2022/11/29 09:17:12;;;;;;;3.53;2.50;;;;;;;;;;5099245;28;20020;-76
2022/11/29 09:19:38;;;;;;;6.32;3.03;;;;;;;;;;5094549;28;20027;-77
2022/11/29 09:22:04;;;;;;;4.45;3.13;;;;;;;;;;5095984;28;20027;-79
2022/11/29 09:24:30;;;;;;;5.50;2.97;;;;;;;;;;5094234;28;20039;-78
2022/11/29 09:26:56;;;;;;;4.28;2.80;;;;;;;;;;5089015;28;20024;-78
2022/11/29 09:29:22;;;;;;;7.35;3.20;;;;;;;;;;5082773;28;20477;-77
2022/11/29 09:31:48;;;;;;;4.93;2.70;;;;;;;;;;5095699;28;20119;-77
2022/11/29 09:34:15;;;;;;;3.33;2.25;;;;;;;;;;5080583;28;20031;-78
2022/11/29 09:36:43;;;;;;;2.92;2.30;;;;;;;;;;5115153;28;20076;-77
2022/11/29 09:39:11;;;;;;;3.28;2.08;;;;;;;;;;5099091;28;20052;-79
2022/11/29 09:41:40;;;;;;;3.10;2.47;;;;;;;;;;5089381;28;20024;-79
2022/11/29 09:44:12;;;;;;;3.42;2.70;;;;;;;;;;5087700;28;20078;-80
2022/11/29 09:46:47;;;;;;;4.63;3.20;;;;;;;;;;5092999;28;20113;-80
2022/11/29 09:49:13;;;;;;;3.67;2.45;;;;;;;;;;5096153;28;20024;-81
2022/11/29 09:51:42;;;;;;;4.75;2.88;;;;;;;;;;5064002;28;20118;-79
2022/11/29 09:54:11;;;;;;;3.17;2.20;;;;;;;;;;5074816;28;20095;-79
2022/11/29 09:56:42;;;;;;;3.50;2.60;;;;;;;;;;5109348;28;20024;-79
2022/11/29 09:59:13;;;;;;;2.80;2.33;;;;;;;;;;5084571;28;20465;-78
2022/11/29 10:01:42;;;;;;;3.45;2.35;;;;;;;;;;5074538;28;20028;-78
2022/11/29 10:04:12;;;;;;;2.25;2.00;;;;;;;;;;5073803;28;20050;-79
2022/11/29 10:06:43;;;;;;;3.70;2.50;;;;;;;;;;5073365;28;20028;-79
2022/11/29 10:09:17;;;;;;;5.00;2.03;;;;;;;;;;5084291;28;20020;-79
2022/11/29 10:11:51;;;;;;;3.13;2.38;;;;;;;;;;5086967;28;20065;-79
2022/11/29 10:14:26;;;;;;;3.85;2.25;;;;;;;;;;5080028;28;20047;-79
2022/11/29 10:16:56;;;;;;;2.88;2.42;;;;;;;;;;5074015;28;20024;-80
2022/11/29 10:19:37;;;;;;;2.30;2.08;;;;;;;;;;5083277;28;20024;-79
2022/11/29 10:22:09;;;;;;;2.13;1.92;;;;;;;;;;5096741;28;20027;-78
2022/11/29 10:24:37;;;;;;;2.55;2.22;;;;;;;;;;5093014;28;20069;-79
2022/11/29 10:27:18;;;;;;;3.13;1.92;;;;;;;;;;5094633;28;20496;-78
2022/11/29 10:29:49;;;;;;;2.40;1.80;;;;;;;;;;5094762;28;20094;-77
2022/11/29 10:32:15;;;;;;;2.00;1.90;;;;;;;;;;5094951;28;20492;-79
2022/11/29 10:34:42;;;;;;;1.80;1.70;;;;;;;;;;5094322;28;20024;-77
2022/11/29 10:37:12;;;;;;;2.05;1.75;;;;;;;;;;5094417;28;20131;-79
2022/11/29 10:39:43;;;;;;;2.28;1.75;;;;;;;;;;5092484;28;20446;-78
2022/11/29 10:42:47;;;;;;;3.08;1.90;;;;;;;;;;5094275;28;20028;-77
2022/11/29 10:45:01;;;;;;;2.03;1.83;;;;;;;;;;5094533;28;20384;-77
2022/11/29 10:47:27;;;;;;;2.65;1.92;;;;;;;;;;5095145;28;20016;-78
2022/11/29 10:49:53;;;;;;;1.95;1.80;;;;;;;;;;5100327;28;20013;-78
2022/11/29 10:52:21;;;;;;;3.05;1.65;;;;;;;;;;5099740;28;20028;-78
2022/11/29 10:54:48;;;;;;;1.58;1.48;;;;;;;;;;5109524;28;20020;-79
2022/11/29 10:57:15;;;;;;;1.58;1.30;;;;;;;;;;5113201;28;20103;-78
2022/11/29 10:59:41;;;;;;;1.73;1.42;;;;;;;;;;5109724;28;20028;-78
2022/11/29 11:02:16;;;;;;;2.70;2.00;;;;;;;;;;5097928;28;20020;-78
2022/11/29 11:04:44;;;;;;;1.73;1.60;;;;;;;;;;5113185;28;20023;-78
2022/11/29 11:07:20;;;;;;;2.38;1.70;;;;;;;;;;5112732;28;20072;-79
2022/11/29 11:09:48;;;;;;;4.60;2.20;;;;;;;;;;5102279;28;20104;-78
2022/11/29 11:12:14;;;;;;;3.28;2.00;;;;;;;;;;5096412;28;20093;-78
2022/11/29 11:14:40;;;;;;;1.83;1.73;;;;;;;;;;5103653;28;20496;-78
2022/11/29 11:17:21;;;;;;;2.25;1.67;;;;;;;;;;5114029;28;20031;-79
2022/11/29 11:19:56;;;;;;;1.35;1.25;;;;;;;;;;5087111;28;20041;-80
2022/11/29 11:22:23;;;;;;;2.15;1.40;;;;;;;;;;5083393;28;20135;-79
2022/11/29 11:24:56;;;;;;;1.55;1.17;;;;;;;;;;5095362;28;20426;-79
2022/11/29 11:27:48;;;;;;;1.30;1.20;;;;;;;;;;5098055;28;20039;-79
2022/11/29 11:30:25;;;;;;;1.35;1.23;;;;;;;;;;5088523;28;20032;-79
2022/11/29 11:33:11;;;;;;;2.67;1.20;;;;;;;;;;5102725;28;20575;-79
2022/11/29 11:35:37;;;;;;;1.48;1.20;;;;;;;;;;5093612;28;20059;-79
2022/11/29 11:38:03;;;;;;;0.80;0.80;;;;;;;;;;5092202;28;20027;-79
2022/11/29 11:40:29;;;;;;;1.33;1.23;;;;;;;;;;5092751;28;20028;-78
2022/11/29 11:43:00;;;;;;;2.08;1.08;;;;;;;;;;5092721;28;20052;-80
2022/11/29 11:45:37;;;;;;;2.55;1.48;;;;;;;;;;5095038;28;20027;-80
2022/11/29 11:48:13;;;;;;;2.72;1.60;;;;;;;;;;5081471;28;20314;-78
2022/11/29 11:50:52;;;;;;;1.98;1.42;;;;;;;;;;5078315;28;20074;-80
2022/11/29 11:53:27;;;;;;;1.27;1.17;;;;;;;;;;5114749;28;20023;-78
2022/11/29 11:56:00;;;;;;;2.40;1.88;;;;;;;;;;5094920;28;20031;-78
2022/11/29 11:58:34;;;;;;;3.30;1.75;;;;;;;;;;5093936;28;20024;-78
2022/11/29 12:01:12;;;;;;;3.10;1.58;;;;;;;;;;5093949;28;20032;-79
2022/11/29 12:04:05;;;;;;;1.73;1.55;;;;;;;;;;5094966;28;20039;-79
2022/11/29 12:06:46;;;;;;;2.42;1.70;;;;;;;;;;5074216;28;20051;-78
2022/11/29 12:09:15;;;;;;;1.57;1.40;;;;;;;;;;5093209;28;20016;-79
2022/11/29 12:12:02;;;;;;;1.33;1.23;;;;;;;;;;5092968;28;20024;-78
2022/11/29 12:14:40;;;;;;;3.03;1.27;;;;;;;;;;5076469;28;20392;-78
2022/11/29 12:17:20;;;;;;;1.33;1.17;;;;;;;;;;5069095;28;20032;-80
2022/11/29 12:19:51;;;;;;;1.17;1.08;;;;;;;;;;5092834;28;20020;-78
2022/11/29 12:22:22;;;;;;;3.10;1.33;;;;;;;;;;5092704;28;20024;-79
2022/11/29 12:24:52;;;;;;;1.65;1.40;;;;;;;;;;5094199;28;20044;-79
2022/11/29 12:27:18;;;;;;;1.85;1.42;;;;;;;;;;5091183;28;20054;-79
2022/11/29 12:29:44;;;;;;;2.75;1.70;;;;;;;;;;5082868;28;20021;-79
2022/11/29 12:32:29;;;;;;;3.38;2.05;;;;;;;;;;5092354;28;20020;-79
2022/11/29 12:35:01;;;;;;;2.80;1.70;;;;;;;;;;5091781;28;20077;-79
2022/11/29 12:37:27;;;;;;;2.60;1.45;;;;;;;;;;5072432;28;20027;-79
2022/11/29 12:39:55;;;;;;;3.08;2.13;;;;;;;;;;5089474;28;20024;-79
2022/11/29 12:42:40;;;;;;;2.80;2.15;;;;;;;;;;5097718;28;20068;-78
2022/11/29 12:45:21;;;;;;;2.20;1.30;;;;;;;;;;5100122;28;20427;-78
2022/11/29 12:47:57;;;;;;;2.80;1.75;;;;;;;;;;5106717;28;20427;-78
2022/11/29 12:50:27;;;;;;;2.40;2.10;;;;;;;;;;5121059;28;20023;-79
2022/11/29 12:52:53;;;;;;;1.95;1.83;;;;;;;;;;5120280;28;20408;-78
2022/11/29 12:55:34;;;;;;;3.58;2.20;;;;;;;;;;5087799;28;20032;-79
2022/11/29 12:58:10;;;;;;;1.85;1.70;;;;;;;;;;5096468;28;20055;-78
2022/11/29 13:00:56;;;;;;;1.90;1.60;;;;;;;;;;5097397;28;20024;-78
2022/11/29 13:03:29;;;;;;;2.38;1.38;;;;;;;;;;5077983;28;20127;-78
2022/11/29 13:06:01;;;;;;;2.13;1.40;;;;;;;;;;5081153;28;20493;-77
2022/11/29 13:08:43;;;;;;;1.48;1.38;;;;;;;;;;5090330;28;20028;-78
2022/11/29 13:11:09;;;;;;;2.40;1.48;;;;;;;;;;5100013;28;20528;-79
2022/11/29 13:13:41;;;;;;;4.00;1.70;;;;;;;;;;5105566;28;20575;-79
2022/11/29 13:16:26;;;;;;;4.22;1.30;;;;;;;;;;5094061;28;20543;-79
2022/11/29 13:19:06;;;;;;;3.42;1.83;;;;;;;;;;5091777;28;20500;-79
2022/11/29 13:21:38;;;;;;;2.85;2.20;;;;;;;;;;5096462;28;20039;-80
2022/11/29 13:24:06;;;;;;;2.72;1.70;;;;;;;;;;5098558;28;20023;-78
2022/11/29 13:26:33;;;;;;;1.75;1.65;;;;;;;;;;5099080;28;20028;-79
2022/11/29 13:29:01;;;;;;;2.88;2.00;;;;;;;;;;5080187;28;20031;-79
2022/11/29 13:31:27;;;;;;;3.65;2.08;;;;;;;;;;5100495;28;20024;-78
2022/11/29 13:33:53;;;;;;;1.88;1.75;;;;;;;;;;5107453;28;20028;-79
2022/11/29 13:36:35;;;;;;;2.00;1.63;;;;;;;;;;5115785;28;20279;-78
2022/11/29 13:39:05;;;;;;;1.85;1.70;;;;;;;;;;5081340;28;20089;-79
2022/11/29 13:41:37;;;;;;;2.03;1.85;;;;;;;;;;5109536;28;20066;-78
2022/11/29 13:44:22;;;;;;;2.08;1.42;;;;;;;;;;5081181;28;20032;-79
2022/11/29 13:47:02;;;;;;;5.40;2.20;;;;;;;;;;5100936;28;20090;-78
2022/11/29 13:50:04;;;;;;;2.55;2.03;;;;;;;;;;5097510;28;20069;-78
2022/11/29 13:52:39;;;;;;;4.45;3.10;;;;;;;;;;5056172;28;20048;-78
2022/11/29 13:55:05;;;;;;;4.18;2.60;;;;;;;;;;5111223;28;20050;-79
2022/11/29 13:57:50;;;;;;;5.05;2.65;;;;;;;;;;5102829;28;20035;-79
2022/11/29 14:00:38;;;;;;;4.93;3.30;;;;;;;;;;5080753;28;20044;-79
2022/11/29 14:03:37;;;;;;;4.55;3.40;;;;;;;;;;5080621;28;20016;-79
2022/11/29 14:06:12;;;;;;;5.90;4.25;;;;;;;;;;5045204;28;20032;-79
2022/11/29 14:08:44;;;;;;;5.65;4.22;;;;;;;;;;5085546;28;20044;-78
2022/11/29 14:11:13;;;;;;;5.07;4.60;;;;;;;;;;5099794;28;20012;-79
2022/11/29 14:13:42;;;;;;;5.28;4.65;;;;;;;;;;5106326;28;20032;-79
2022/11/29 14:16:17;;;;;;;8.10;4.95;;;;;;;;;;5102648;28;20050;-77
2022/11/29 14:19:02;;;;;;;7.10;5.53;;;;;;;;;;5099791;28;20055;-79
2022/11/29 14:21:47;;;;;;;7.18;5.45;;;;;;;;;;5106260;28;20050;-79
2022/11/29 14:24:38;;;;;;;7.00;5.25;;;;;;;;;;5105444;28;20028;-78
2022/11/29 14:27:13;;;;;;;6.95;6.05;;;;;;;;;;5105456;28;20040;-79
2022/11/29 14:29:48;;;;;;;11.13;7.15;;;;;;;;;;5095703;28;20097;-79
2022/11/29 14:32:23;;;;;;;10.63;6.85;;;;;;;;;;5066023;28;20029;-79
2022/11/29 14:35:02;;;;;;;10.82;7.30;;;;;;;;;;5061976;28;20036;-81
2022/11/29 14:37:33;;;;;;;11.13;8.52;;;;;;;;;;5091859;28;20085;-79
2022/11/29 14:40:01;;;;;;;11.77;8.85;;;;;;;;;;5109471;28;20045;-79
2022/11/29 14:42:29;;;;;;;14.68;9.98;;;;;;;;;;5085778;28;20047;-78
2022/11/29 14:44:57;;;;;;;12.05;9.07;;;;;;;;;;5094189;28;20024;-79
2022/11/29 14:47:33;;;;;;;14.45;10.02;;;;;;;;;;5093396;28;20012;-79
2022/11/29 14:50:02;;;;;;;12.65;9.10;;;;;;;;;;5097468;28;20380;-79
2022/11/29 14:52:38;;;;;;;14.90;9.68;;;;;;;;;;5097401;28;20024;-79
2022/11/29 14:55:07;;;;;;;14.93;10.70;;;;;;;;;;5078377;28;20066;-78
2022/11/29 14:57:52;;;;;;;14.57;10.52;;;;;;;;;;5084840;22;20477;-81
2022/11/29 15:00:20;;;;;;;14.48;11.15;;;;;;;;;;5039913;28;20033;-81
2022/11/29 15:02:56;;;;;;;17.73;10.43;;;;;;;;;;5023406;28;20057;-81
2022/11/29 15:05:27;;;;;;;17.77;12.25;;;;;;;;;;5031747;28;20382;-81
2022/11/29 15:08:02;;;;;;;14.63;10.20;;;;;;;;;;5029967;28;20025;-81
2022/11/29 15:10:31;;;;;;;14.00;10.30;;;;;;;;;;5046681;28;20021;-82
2022/11/29 15:12:59;;;;;;;16.77;11.65;;;;;;;;;;5035038;28;20115;-82
2022/11/29 15:15:25;;;;;;;13.93;9.70;;;;;;;;;;5042816;28;20033;-82
2022/11/29 15:17:54;;;;;;;16.35;11.02;;;;;;;;;;5018301;28;20036;-82